LFRU/MXN METAR and TAF weather

Enter ICAO airport designator
Station Type Date Time Source
LFRU METAR 2020/07/11 20:00 UTC NOAA

LFRU 112000Z AUTO 06006KT CAVOK 14/09 Q1027


Station Type Date Time Source
LFRU Decoded METAR 2020/07/11 20:00 UTC NOAA

Morlaix / Ploujean, France (LFRU) 48-36N 003-49W
Jul 11, 2020 - 04:00 PM EDT / 2020.07.11 2000 UTC
Wind: from the ENE (060 degrees) at 7 MPH (6 KT):0
Visibility: greater than 7 mile(s):0
Temperature: 57 F (14 C)
Dew Point: 48 F (9 C)
Relative Humidity: 71%
Pressure (altimeter): 30.33 in. Hg (1027 hPa)
ob: LFRU 112000Z AUTO 06006KT CAVOK 14/09 Q1027
cycle: 20

Station Type Date Time Source
LFRU TAF UTC NOAA

Error!

Example: see airport list